createdAt,value
2022-12-03T00:01:15.804Z,101065.39
2022-12-03T00:03:30.325Z,101051.04
2022-12-03T00:05:48.893Z,101056.48
2022-12-03T00:08:03.338Z,101057.05
2022-12-03T00:10:17.850Z,101052.64
2022-12-03T00:12:31.719Z,101045.48
2022-12-03T00:14:45.593Z,101042.50
2022-12-03T00:16:59.434Z,101042.92
2022-12-03T00:19:13.381Z,101041.41
2022-12-03T00:21:28.224Z,101036.44
2022-12-03T00:23:42.538Z,101038.70
2022-12-03T00:25:57.109Z,101025.42
2022-12-03T00:28:11.161Z,101028.53
2022-12-03T00:30:25.083Z,101029.02
2022-12-03T00:32:38.827Z,101026.34
2022-12-03T00:34:52.524Z,101016.77
2022-12-03T00:37:06.184Z,101017.14
2022-12-03T00:39:20.796Z,101010.20
2022-12-03T00:41:34.217Z,101012.08
2022-12-03T00:43:47.597Z,101018.01
2022-12-03T00:46:01.058Z,101011.06
2022-12-03T00:48:14.808Z,101006.48
2022-12-03T00:50:28.516Z,101004.90
2022-12-03T00:52:42.231Z,101002.98
2022-12-03T00:54:55.780Z,101004.23
2022-12-03T00:57:09.291Z,100994.10
2022-12-03T00:59:22.929Z,101001.41
2022-12-03T01:01:36.243Z,100997.73
2022-12-03T01:03:49.617Z,100996.22
2022-12-03T01:06:02.796Z,100984.13
2022-12-03T01:08:16.108Z,100997.08
2022-12-03T01:10:29.640Z,100988.33
2022-12-03T01:12:42.878Z,100996.11
2022-12-03T01:14:56.591Z,100995.77
2022-12-03T01:17:10.342Z,101000.40
2022-12-03T01:19:23.923Z,100984.70
2022-12-03T01:21:37.452Z,100988.00
2022-12-03T01:23:50.626Z,100990.13
2022-12-03T01:26:03.878Z,100986.63
2022-12-03T01:28:32.836Z,100979.22
2022-12-03T01:30:59.293Z,100979.60
2022-12-03T01:33:12.706Z,100983.89
2022-12-03T01:35:26.108Z,100973.91
2022-12-03T01:37:39.402Z,100969.88
2022-12-03T01:39:52.771Z,100986.13
2022-12-03T01:42:06.750Z,100980.67
2022-12-03T01:44:24.886Z,100987.77
2022-12-03T01:46:42.294Z,100977.94
2022-12-03T01:48:57.445Z,100982.69
2022-12-03T01:51:12.819Z,100973.59
2022-12-03T01:53:26.460Z,100983.87
2022-12-03T01:55:40.491Z,100982.61
2022-12-03T01:57:56.538Z,100978.25
2022-12-03T02:00:11.640Z,100982.52
2022-12-03T02:02:28.431Z,100974.91
2022-12-03T02:04:42.883Z,100963.60
2022-12-03T02:06:56.396Z,100970.67
2022-12-03T02:09:09.895Z,100966.78
2022-12-03T02:11:29.052Z,100961.65
2022-12-03T02:13:43.035Z,100964.45
2022-12-03T02:15:56.417Z,100959.98
2022-12-03T02:18:11.489Z,100961.54
2022-12-03T02:20:25.357Z,100969.38
2022-12-03T02:22:49.932Z,100963.68
2022-12-03T02:25:15.873Z,100964.73
2022-12-03T02:27:30.587Z,100954.16
2022-12-03T02:29:43.964Z,100948.71
2022-12-03T02:31:57.398Z,100945.09
2022-12-03T02:34:14.617Z,100941.80
2022-12-03T02:36:28.304Z,100952.23
2022-12-03T02:38:42.656Z,100938.71
2022-12-03T02:40:59.135Z,100936.33
2022-12-03T02:43:12.849Z,100931.59
2022-12-03T02:45:29.216Z,100939.69
2022-12-03T02:47:46.730Z,100944.79
2022-12-03T02:50:01.124Z,100933.27
2022-12-03T02:52:14.932Z,100927.08
2022-12-03T02:54:28.912Z,100923.59
2022-12-03T02:56:42.297Z,100918.55
2022-12-03T02:58:58.347Z,100933.19
2022-12-03T03:01:12.765Z,100915.19
2022-12-03T03:03:28.299Z,100917.59
2022-12-03T03:05:43.424Z,100922.20
2022-12-03T03:07:57.701Z,100918.73
2022-12-03T03:10:15.033Z,100919.55
2022-12-03T03:12:28.278Z,100917.56
2022-12-03T03:14:41.973Z,100906.17
2022-12-03T03:16:57.459Z,100916.56
2022-12-03T03:19:10.820Z,100902.32
2022-12-03T03:21:25.438Z,100912.07
2022-12-03T03:23:38.643Z,100909.83
2022-12-03T03:25:56.804Z,100907.70
2022-12-03T03:28:10.767Z,100897.22
2022-12-03T03:30:24.448Z,100909.06
2022-12-03T03:32:37.888Z,100912.82
2022-12-03T03:34:51.398Z,100906.62
2022-12-03T03:37:04.997Z,100921.00
2022-12-03T03:39:18.304Z,100910.56
2022-12-03T03:41:31.951Z,100912.83
2022-12-03T03:43:46.899Z,100917.90
2022-12-03T03:46:00.640Z,100914.00
2022-12-03T03:48:14.648Z,100917.83
2022-12-03T03:50:28.404Z,100911.71
2022-12-03T03:52:43.321Z,100910.77
2022-12-03T03:54:56.828Z,100915.68
2022-12-03T03:57:10.824Z,100919.81
2022-12-03T03:59:24.220Z,100914.79
2022-12-03T04:01:38.063Z,100911.51
2022-12-03T04:03:51.243Z,100915.07
2022-12-03T04:06:04.661Z,100908.51
2022-12-03T04:08:17.912Z,100922.11
2022-12-03T04:10:59.187Z,100912.92
2022-12-03T04:13:12.374Z,100912.20
2022-12-03T04:15:25.804Z,100906.46
2022-12-03T04:17:39.119Z,100898.31
2022-12-03T04:19:52.455Z,100902.45
2022-12-03T04:22:22.533Z,100896.65
2022-12-03T04:24:36.092Z,100897.51
2022-12-03T04:27:05.593Z,100915.86
2022-12-03T04:29:19.018Z,100914.58
2022-12-03T04:31:48.893Z,100921.95
2022-12-03T04:34:18.391Z,100913.48
2022-12-03T04:36:31.572Z,100913.82
2022-12-03T04:38:46.599Z,100917.63
2022-12-03T04:41:07.187Z,100908.40
2022-12-03T04:43:20.556Z,100911.09
2022-12-03T04:45:33.936Z,100906.86
2022-12-03T04:47:47.348Z,100913.09
2022-12-03T04:50:03.533Z,100903.48
2022-12-03T04:52:18.155Z,100917.35
2022-12-03T04:54:31.891Z,100916.80
2022-12-03T04:56:45.303Z,100919.25
2022-12-03T04:58:58.547Z,100924.64
2022-12-03T05:01:12.183Z,100924.45
2022-12-03T05:03:25.425Z,100910.28
2022-12-03T05:05:38.597Z,100911.35
2022-12-03T05:07:51.913Z,100916.23
2022-12-03T05:10:05.106Z,100914.33
2022-12-03T05:12:18.370Z,100915.36
2022-12-03T05:14:31.674Z,100905.97
2022-12-03T05:16:45.110Z,100916.14
2022-12-03T05:18:58.631Z,100912.54
2022-12-03T05:21:12.166Z,100916.52
2022-12-03T05:23:25.488Z,100911.85
2022-12-03T05:25:38.755Z,100910.27
2022-12-03T05:27:51.903Z,100894.53
2022-12-03T05:30:05.256Z,100910.67
2022-12-03T05:32:18.567Z,100913.18
2022-12-03T05:34:31.770Z,100918.48
2022-12-03T05:36:44.984Z,100916.88
2022-12-03T05:38:58.262Z,100912.11
2022-12-03T05:41:24.412Z,100914.93
2022-12-03T05:43:38.288Z,100919.84
2022-12-03T05:45:51.619Z,100927.41
2022-12-03T05:48:05.623Z,100920.35
2022-12-03T05:50:19.274Z,100938.27
2022-12-03T05:52:32.608Z,100929.23
2022-12-03T05:54:45.940Z,100932.92
2022-12-03T05:56:59.151Z,100944.43
2022-12-03T05:59:12.320Z,100940.83
2022-12-03T06:01:25.701Z,100941.88
2022-12-03T06:03:38.949Z,100952.46
2022-12-03T06:05:52.847Z,100948.63
2022-12-03T06:08:06.110Z,100949.13
2022-12-03T06:10:21.834Z,100944.75
2022-12-03T06:12:38.021Z,100948.89
2022-12-03T06:14:51.533Z,100948.42
2022-12-03T06:17:05.948Z,100955.73
2022-12-03T06:19:19.043Z,100957.41
2022-12-03T06:21:32.410Z,100956.19
2022-12-03T06:23:46.003Z,100961.26
2022-12-03T06:26:02.089Z,100964.00
2022-12-03T06:28:15.333Z,100964.59
2022-12-03T06:30:28.451Z,100963.90
2022-12-03T06:32:43.838Z,100964.65
2022-12-03T06:34:57.489Z,100966.82
2022-12-03T06:37:10.898Z,100978.98
2022-12-03T06:39:24.610Z,100968.84
2022-12-03T06:41:38.073Z,100975.48
2022-12-03T06:43:51.411Z,100978.45
2022-12-03T06:46:04.798Z,100966.83
2022-12-03T06:48:18.252Z,100971.87
2022-12-03T06:50:32.035Z,100973.72
2022-12-03T06:52:45.474Z,100963.25
2022-12-03T06:54:58.697Z,100968.58
2022-12-03T06:57:30.501Z,100971.15
2022-12-03T06:59:43.574Z,100980.55
2022-12-03T07:01:56.942Z,100987.65
2022-12-03T07:04:11.050Z,100989.02
2022-12-03T07:06:24.130Z,100994.29
2022-12-03T07:08:37.347Z,100994.23
2022-12-03T07:10:50.540Z,100995.23
2022-12-03T07:13:03.620Z,100993.31
2022-12-03T07:15:17.276Z,100997.36
2022-12-03T07:17:30.440Z,100996.83
2022-12-03T07:19:43.494Z,100990.88
2022-12-03T07:21:56.883Z,100994.59
2022-12-03T07:24:10.532Z,100985.36
2022-12-03T07:26:23.692Z,100995.27
2022-12-03T07:28:37.012Z,100998.42
2022-12-03T07:30:50.227Z,101000.43
2022-12-03T07:33:03.450Z,101007.93
2022-12-03T07:35:17.097Z,101003.71
2022-12-03T07:37:30.405Z,101012.17
2022-12-03T07:39:43.673Z,101008.50
2022-12-03T07:41:56.812Z,101013.17
2022-12-03T07:44:14.182Z,101006.36
2022-12-03T07:46:28.134Z,101005.14
2022-12-03T07:48:41.294Z,101007.91
2022-12-03T07:50:54.501Z,101012.95
2022-12-03T07:53:07.782Z,101011.23
2022-12-03T07:55:22.521Z,101011.04
2022-12-03T07:57:35.964Z,101007.23
2022-12-03T07:59:49.279Z,101008.61
2022-12-03T08:02:03.589Z,101007.51
2022-12-03T08:04:20.208Z,101008.05
2022-12-03T08:06:33.456Z,101006.00
2022-12-03T08:08:46.893Z,101007.10
2022-12-03T08:11:00.077Z,101014.86
2022-12-03T08:13:17.509Z,101018.39
2022-12-03T08:15:39.088Z,101006.23
2022-12-03T08:17:57.112Z,101005.78
2022-12-03T08:20:18.097Z,101012.00
2022-12-03T08:22:31.809Z,100999.82
2022-12-03T08:24:46.034Z,101004.67
2022-12-03T08:27:00.656Z,101007.30
2022-12-03T08:29:15.776Z,101011.86
2022-12-03T08:31:33.562Z,101009.34
2022-12-03T08:33:47.923Z,101014.92
2022-12-03T08:36:01.294Z,101018.09
2022-12-03T08:38:53.028Z,101011.91
2022-12-03T08:41:06.327Z,101014.52
2022-12-03T08:43:25.793Z,101006.33
2022-12-03T08:45:45.521Z,101010.48
2022-12-03T08:48:00.883Z,101008.43
2022-12-03T08:50:31.788Z,101010.70
2022-12-03T08:52:45.268Z,101006.19
2022-12-03T08:54:59.964Z,100997.29
2022-12-03T08:57:30.487Z,101003.73
2022-12-03T08:59:45.599Z,101009.36
2022-12-03T09:01:59.185Z,101014.06
2022-12-03T09:04:39.615Z,101007.91
2022-12-03T09:06:52.871Z,101006.86
2022-12-03T09:09:06.971Z,101009.12
2022-12-03T09:11:20.504Z,101010.05
2022-12-03T09:13:33.738Z,101015.11
2022-12-03T09:15:47.043Z,101019.66
2022-12-03T09:18:00.322Z,101018.49
2022-12-03T09:20:15.243Z,101010.00
2022-12-03T09:22:28.659Z,101012.13
2022-12-03T09:24:41.886Z,101005.14
2022-12-03T09:26:55.310Z,101004.49
2022-12-03T09:29:12.167Z,101011.19
2022-12-03T09:31:26.323Z,101017.04
2022-12-03T09:33:39.872Z,101019.80
2022-12-03T09:35:53.223Z,101011.38
2022-12-03T09:38:06.548Z,101013.56
2022-12-03T09:40:21.467Z,101007.28
2022-12-03T09:42:34.902Z,101005.71
2022-12-03T09:44:48.473Z,101017.71
2022-12-03T09:47:03.108Z,101018.53
2022-12-03T09:49:19.912Z,101021.77
2022-12-03T09:51:37.998Z,101021.99
2022-12-03T09:53:51.629Z,101031.55
2022-12-03T09:56:06.742Z,101032.04
2022-12-03T09:58:21.695Z,101028.26
2022-12-03T10:00:36.574Z,101033.84
2022-12-03T10:02:50.572Z,101027.23
2022-12-03T10:05:04.337Z,101033.13
2022-12-03T10:07:18.103Z,101033.63
2022-12-03T10:09:32.473Z,101041.09
2022-12-03T10:11:46.691Z,101040.32
2022-12-03T10:14:01.094Z,101047.03
2022-12-03T10:16:17.194Z,101048.98
2022-12-03T10:18:36.866Z,101038.24
2022-12-03T10:20:54.476Z,101049.05
2022-12-03T10:23:07.648Z,101055.09
2022-12-03T10:25:23.005Z,101050.86
2022-12-03T10:27:37.242Z,101055.13
2022-12-03T10:30:00.338Z,101053.68
2022-12-03T10:32:14.890Z,101052.86
2022-12-03T10:34:36.373Z,101057.59
2022-12-03T10:36:49.769Z,101051.80
2022-12-03T10:39:17.564Z,101046.48
2022-12-03T10:41:32.537Z,101042.48
2022-12-03T10:43:45.879Z,101041.67
2022-12-03T10:46:20.630Z,101044.90
2022-12-03T10:48:34.023Z,101049.55
2022-12-03T10:50:54.921Z,101050.63
2022-12-03T10:53:08.552Z,101047.63
2022-12-03T10:55:22.443Z,101037.20
2022-12-03T10:57:36.424Z,101037.23
2022-12-03T10:59:51.486Z,101037.33
2022-12-03T11:02:06.382Z,101040.61
2022-12-03T11:04:32.816Z,101028.92
2022-12-03T11:06:46.132Z,101029.79
2022-12-03T11:09:05.335Z,101025.52
2022-12-03T11:11:27.218Z,101028.66
2022-12-03T11:13:58.710Z,101028.77
2022-12-03T11:16:13.439Z,101030.41
2022-12-03T11:18:55.131Z,101036.34
2022-12-03T11:21:11.430Z,101039.96
2022-12-03T11:24:00.636Z,101047.67
2022-12-03T11:26:18.654Z,101043.14
2022-12-03T11:29:04.357Z,101048.73
2022-12-03T11:31:44.932Z,101056.03
2022-12-03T11:34:44.278Z,101055.80
2022-12-03T11:37:25.845Z,101055.90
2022-12-03T11:40:21.899Z,101063.27
2022-12-03T11:42:43.955Z,101063.79
2022-12-03T11:45:26.530Z,101069.21
2022-12-03T11:47:43.040Z,101070.62
2022-12-03T11:49:56.706Z,101082.42
2022-12-03T11:52:25.235Z,101086.60
2022-12-03T11:54:41.706Z,101084.61
2022-12-03T11:56:57.269Z,101085.11
2022-12-03T11:59:17.269Z,101096.38
2022-12-03T12:01:39.397Z,101098.10
2022-12-03T12:03:53.682Z,101103.74
2022-12-03T12:06:13.707Z,101107.44
2022-12-03T12:08:26.892Z,101106.94
2022-12-03T12:10:52.332Z,101112.31
2022-12-03T12:13:05.774Z,101116.26
2022-12-03T12:15:47.272Z,101111.04
2022-12-03T12:18:00.531Z,101110.94
2022-12-03T12:20:35.409Z,101111.84
2022-12-03T12:22:48.841Z,101117.42
2022-12-03T12:25:03.526Z,101115.70
2022-12-03T12:27:18.435Z,101117.95
2022-12-03T12:29:34.976Z,101117.89
2022-12-03T12:31:53.474Z,101123.64
2022-12-03T12:34:08.446Z,101118.57
2022-12-03T12:36:21.696Z,101118.80
2022-12-03T12:38:36.000Z,101117.68
2022-12-03T12:40:51.496Z,101120.55
2022-12-03T12:43:12.603Z,101117.81
2022-12-03T12:45:30.614Z,101117.70
2022-12-03T12:47:45.885Z,101125.02
2022-12-03T12:49:59.426Z,101131.60
2022-12-03T12:52:18.612Z,101130.80
2022-12-03T12:54:32.009Z,101129.27
2022-12-03T12:56:46.594Z,101128.91
2022-12-03T12:59:01.027Z,101127.92
2022-12-03T13:01:23.615Z,101136.35
2022-12-03T13:03:41.771Z,101135.96
2022-12-03T13:05:59.658Z,101135.38
2022-12-03T13:08:25.788Z,101134.04
2022-12-03T13:10:44.920Z,101145.04
2022-12-03T13:12:58.821Z,101142.16
2022-12-03T13:15:40.457Z,101141.52
2022-12-03T13:17:54.912Z,101151.09
2022-12-03T13:20:20.038Z,101154.61
2022-12-03T13:22:34.198Z,101163.37
2022-12-03T13:24:50.299Z,101155.94
2022-12-03T13:27:05.824Z,101155.15
2022-12-03T13:29:22.177Z,101152.03
2022-12-03T13:31:43.880Z,101151.06
2022-12-03T13:33:58.088Z,101153.34
2022-12-03T13:36:19.189Z,101150.94
2022-12-03T13:38:33.978Z,101149.25
2022-12-03T13:40:47.912Z,101150.19
2022-12-03T13:43:01.382Z,101154.02
2022-12-03T13:45:35.158Z,101157.27
2022-12-03T13:47:50.911Z,101158.66
2022-12-03T13:50:19.547Z,101157.93
2022-12-03T13:52:35.175Z,101164.21
2022-12-03T13:54:48.494Z,101167.67
2022-12-03T13:57:03.790Z,101174.69
2022-12-03T13:59:22.964Z,101181.27
2022-12-03T14:01:39.676Z,101184.18
2022-12-03T14:03:53.679Z,101181.50
2022-12-03T14:06:07.106Z,101185.52
2022-12-03T14:08:20.465Z,101179.52
2022-12-03T14:10:34.381Z,101186.77
2022-12-03T14:12:47.573Z,101186.06
2022-12-03T14:15:16.335Z,101188.48
2022-12-03T14:17:42.330Z,101186.84
2022-12-03T14:20:08.872Z,101184.72
2022-12-03T14:22:24.706Z,101188.92
2022-12-03T14:24:38.010Z,101194.16
2022-12-03T14:26:57.114Z,101197.11
2022-12-03T14:29:13.158Z,101197.23
2022-12-03T14:31:26.598Z,101194.30
2022-12-03T14:33:47.735Z,101199.13
2022-12-03T14:36:23.459Z,101199.55
2022-12-03T14:38:36.725Z,101197.35
2022-12-03T14:40:52.216Z,101197.39
2022-12-03T14:43:10.549Z,101200.56
2022-12-03T14:45:41.007Z,101198.86
2022-12-03T14:47:57.552Z,101198.67
2022-12-03T14:50:22.332Z,101200.98
2022-12-03T14:52:57.257Z,101204.77
2022-12-03T14:55:24.462Z,101209.77
2022-12-03T14:57:37.733Z,101216.98
2022-12-03T14:59:51.608Z,101218.37
2022-12-03T15:02:11.838Z,101223.46
2022-12-03T15:04:36.232Z,101228.89
2022-12-03T15:06:49.605Z,101233.27
2022-12-03T15:09:03.026Z,101232.63
2022-12-03T15:11:16.370Z,101243.54
2022-12-03T15:16:41.606Z,101256.85
2022-12-03T15:18:54.912Z,101264.94
2022-12-03T15:24:12.768Z,101282.16
2022-12-03T15:26:27.041Z,101285.30
2022-12-03T15:28:44.103Z,101291.13
2022-12-03T15:31:00.042Z,101298.14
2022-12-03T15:33:26.403Z,101301.83
2022-12-03T15:36:02.212Z,101303.05
2022-12-03T15:38:17.632Z,101307.80
2022-12-03T15:40:30.925Z,101304.70
2022-12-03T15:42:44.305Z,101304.73
2022-12-03T15:44:57.889Z,101303.00
2022-12-03T15:47:11.259Z,101299.85
2022-12-03T15:49:24.713Z,101300.25
2022-12-03T15:51:38.156Z,101300.80
2022-12-03T15:53:51.374Z,101299.41
2022-12-03T15:56:04.634Z,101303.46
2022-12-03T15:58:17.880Z,101303.98
2022-12-03T16:00:31.269Z,101303.26
2022-12-03T16:02:54.885Z,101308.13
2022-12-03T16:05:37.926Z,101308.24
2022-12-03T16:07:52.564Z,101312.19
2022-12-03T16:10:05.950Z,101313.44
2022-12-03T16:12:33.591Z,101313.16
2022-12-03T16:14:46.832Z,101315.70
2022-12-03T16:17:36.371Z,101321.58
2022-12-03T16:19:50.281Z,101326.73
2022-12-03T16:22:04.484Z,101329.09
2022-12-03T16:24:18.519Z,101332.66
2022-12-03T16:26:32.146Z,101336.79
2022-12-03T16:28:50.151Z,101342.12
2022-12-03T16:31:15.118Z,101342.03
2022-12-03T16:33:36.496Z,101345.97
2022-12-03T16:36:27.443Z,101349.36
2022-12-03T16:39:22.388Z,101356.38
2022-12-03T16:41:47.822Z,101357.23
2022-12-03T16:44:31.759Z,101357.62
2022-12-03T16:46:44.987Z,101358.73
2022-12-03T16:49:01.176Z,101361.64
2022-12-03T16:51:14.995Z,101366.17
2022-12-03T16:53:28.435Z,101370.20
2022-12-03T16:55:42.114Z,101375.14
2022-12-03T16:57:55.401Z,101386.21
2022-12-03T17:00:10.180Z,101388.69
2022-12-03T17:02:23.404Z,101391.00
2022-12-03T17:04:36.857Z,101396.13
2022-12-03T17:06:50.460Z,101398.79
2022-12-03T17:09:03.647Z,101404.96
2022-12-03T17:11:17.008Z,101408.84
2022-12-03T17:13:30.336Z,101406.92
2022-12-03T17:15:43.823Z,101411.67
2022-12-03T17:17:57.032Z,101412.40
2022-12-03T17:20:13.771Z,101409.45
2022-12-03T17:22:27.008Z,101415.47
2022-12-03T17:24:40.336Z,101410.92
2022-12-03T17:26:54.355Z,101409.73
2022-12-03T17:29:07.701Z,101410.12
2022-12-03T17:31:23.186Z,101409.28
2022-12-03T17:33:36.479Z,101408.80
2022-12-03T17:35:49.734Z,101411.88
2022-12-03T17:38:03.720Z,101408.93
2022-12-03T17:40:18.531Z,101410.20
2022-12-03T17:42:32.506Z,101412.16
2022-12-03T17:44:45.771Z,101408.66
2022-12-03T17:46:59.090Z,101403.34
2022-12-03T17:49:12.332Z,101406.65
2022-12-03T17:51:26.333Z,101406.27
2022-12-03T17:53:39.557Z,101400.41
2022-12-03T17:55:52.767Z,101399.69
2022-12-03T17:58:06.246Z,101401.23
2022-12-03T18:00:21.435Z,101395.90
2022-12-03T18:02:34.688Z,101390.73
2022-12-03T18:04:48.033Z,101391.54
2022-12-03T18:07:02.653Z,101400.45
2022-12-03T18:09:16.105Z,101397.95
2022-12-03T18:11:29.580Z,101396.46
2022-12-03T18:13:42.801Z,101395.52
2022-12-03T18:15:56.292Z,101389.31
2022-12-03T18:18:09.725Z,101388.39
2022-12-03T18:20:23.107Z,101387.64
2022-12-03T18:22:37.283Z,101393.56
2022-12-03T18:24:51.915Z,101398.10
2022-12-03T18:27:05.509Z,101400.18
2022-12-03T18:29:18.697Z,101403.86
2022-12-03T18:31:32.251Z,101403.27
2022-12-03T18:33:45.756Z,101407.46
2022-12-03T18:36:01.657Z,101407.23
2022-12-03T18:38:18.014Z,101409.31
2022-12-03T18:40:31.601Z,101410.30
2022-12-03T18:42:45.019Z,101412.92
2022-12-03T18:44:59.813Z,101413.92
2022-12-03T18:47:17.773Z,101416.29
2022-12-03T18:49:31.064Z,101420.40
2022-12-03T18:51:44.391Z,101412.73
2022-12-03T18:53:57.787Z,101407.83
2022-12-03T18:56:11.606Z,101412.65
2022-12-03T18:58:24.936Z,101412.73
2022-12-03T19:00:39.232Z,101416.48
2022-12-03T19:03:03.009Z,101412.57
2022-12-03T19:05:17.607Z,101410.38
2022-12-03T19:07:30.953Z,101406.88
2022-12-03T19:09:44.636Z,101401.26
2022-12-03T19:11:58.057Z,101398.23
2022-12-03T19:14:12.305Z,101395.00
2022-12-03T19:16:25.599Z,101399.59
2022-12-03T19:18:39.043Z,101402.91
2022-12-03T19:20:52.224Z,101396.30
2022-12-03T19:23:05.453Z,101392.98
2022-12-03T19:25:18.771Z,101393.46
2022-12-03T19:27:32.867Z,101387.63
2022-12-03T19:29:46.093Z,101391.12
2022-12-03T19:32:00.221Z,101383.35
2022-12-03T19:34:13.609Z,101378.07
2022-12-03T19:36:28.884Z,101380.35
2022-12-03T19:38:43.695Z,101378.57
2022-12-03T19:41:05.110Z,101375.58
2022-12-03T19:43:19.011Z,101369.96
2022-12-03T19:45:32.481Z,101364.53
2022-12-03T19:47:45.861Z,101363.86
2022-12-03T19:50:00.851Z,101364.92
2022-12-03T19:52:14.295Z,101368.92
2022-12-03T19:54:28.054Z,101375.73
2022-12-03T19:56:41.874Z,101375.36
2022-12-03T19:58:56.785Z,101378.30
2022-12-03T20:01:16.551Z,101381.44
2022-12-03T20:03:30.054Z,101385.92
2022-12-03T20:05:44.773Z,101380.39
2022-12-03T20:07:58.275Z,101381.16
2022-12-03T20:10:13.911Z,101378.98
2022-12-03T20:12:27.266Z,101373.92
2022-12-03T20:14:40.663Z,101372.77
2022-12-03T20:16:54.184Z,101373.19
2022-12-03T20:19:08.737Z,101372.95
2022-12-03T20:21:22.890Z,101376.41
2022-12-03T20:23:36.390Z,101374.92
2022-12-03T20:25:50.106Z,101373.89
2022-12-03T20:28:03.425Z,101372.34
2022-12-03T20:30:17.854Z,101372.64
2022-12-03T20:32:31.326Z,101375.98
2022-12-03T20:34:47.075Z,101378.81
2022-12-03T20:37:00.248Z,101373.23
2022-12-03T20:39:13.754Z,101380.40
2022-12-03T20:41:27.353Z,101377.89
2022-12-03T20:43:40.735Z,101380.01
2022-12-03T20:45:58.037Z,101377.03
2022-12-03T20:48:14.737Z,101385.44
2022-12-03T20:50:27.967Z,101387.79
2022-12-03T20:52:57.645Z,101389.36
2022-12-03T20:55:15.845Z,101388.98
2022-12-03T20:57:29.139Z,101385.52
2022-12-03T20:59:42.483Z,101379.36
2022-12-03T21:01:55.972Z,101374.61
2022-12-03T21:04:10.011Z,101378.70
2022-12-03T21:06:24.032Z,101372.13
2022-12-03T21:08:41.507Z,101369.80
2022-12-03T21:10:55.378Z,101368.84
2022-12-03T21:13:08.820Z,101364.76
2022-12-03T21:15:22.358Z,101368.38
2022-12-03T21:17:35.822Z,101368.48
2022-12-03T21:19:49.971Z,101364.73
2022-12-03T21:22:03.517Z,101364.66
2022-12-03T21:24:18.097Z,101371.14
2022-12-03T21:26:31.520Z,101376.02
2022-12-03T21:28:46.747Z,101366.98
2022-12-03T21:31:02.823Z,101364.09
2022-12-03T21:33:16.081Z,101358.73
2022-12-03T21:35:29.250Z,101349.71
2022-12-03T21:37:42.457Z,101348.27
2022-12-03T21:39:55.852Z,101351.97
2022-12-03T21:42:22.289Z,101346.67
2022-12-03T21:44:42.680Z,101344.36
2022-12-03T21:47:10.952Z,101343.52
2022-12-03T21:49:26.415Z,101341.11
2022-12-03T21:51:39.713Z,101341.14
2022-12-03T21:53:53.162Z,101329.77
2022-12-03T21:56:10.286Z,101330.94
2022-12-03T21:58:23.525Z,101331.39
2022-12-03T22:00:36.858Z,101329.86
2022-12-03T22:02:50.327Z,101335.23
2022-12-03T22:05:03.657Z,101329.83
2022-12-03T22:07:16.994Z,101325.48
2022-12-03T22:09:30.254Z,101328.70
2022-12-03T22:11:43.522Z,101332.42
2022-12-03T22:13:58.338Z,101323.66
2022-12-03T22:16:16.182Z,101327.45
2022-12-03T22:18:29.547Z,101332.59
2022-12-03T22:20:44.937Z,101330.41
2022-12-03T22:22:58.197Z,101329.61
2022-12-03T22:25:12.079Z,101326.31
2022-12-03T22:27:25.565Z,101331.69
2022-12-03T22:29:39.189Z,101326.10
2022-12-03T22:31:52.436Z,101322.80
2022-12-03T22:34:05.881Z,101324.23
2022-12-03T22:36:21.371Z,101319.15
2022-12-03T22:38:35.569Z,101325.01
2022-12-03T22:40:48.838Z,101329.28
2022-12-03T22:43:02.295Z,101327.14
2022-12-03T22:45:16.358Z,101333.84
2022-12-03T22:47:29.735Z,101332.96
2022-12-03T22:49:43.172Z,101339.29
2022-12-03T22:51:56.652Z,101337.85
2022-12-03T22:54:10.383Z,101343.15
2022-12-03T22:56:23.854Z,101345.10
2022-12-03T22:58:37.174Z,101348.27
2022-12-03T23:00:50.980Z,101355.14
2022-12-03T23:03:04.487Z,101363.95
2022-12-03T23:05:17.976Z,101369.02
2022-12-03T23:07:31.492Z,101369.17
2022-12-03T23:09:44.931Z,101368.30
2022-12-03T23:12:00.119Z,101370.23
2022-12-03T23:14:13.483Z,101373.41
2022-12-03T23:16:29.116Z,101364.81
2022-12-03T23:18:42.537Z,101371.02
2022-12-03T23:20:58.550Z,101374.91
2022-12-03T23:23:11.931Z,101373.69
2022-12-03T23:25:25.922Z,101369.16
2022-12-03T23:27:39.385Z,101371.14
2022-12-03T23:29:52.881Z,101377.00
2022-12-03T23:32:06.961Z,101378.94
2022-12-03T23:34:20.399Z,101379.33
2022-12-03T23:36:35.592Z,101385.70
2022-12-03T23:38:49.047Z,101383.76
2022-12-03T23:41:06.373Z,101376.77
2022-12-03T23:43:19.662Z,101378.23
2022-12-03T23:45:32.987Z,101378.97
2022-12-03T23:47:46.192Z,101375.71
2022-12-03T23:49:59.664Z,101373.52
2022-12-03T23:52:13.001Z,101372.36
2022-12-03T23:54:26.371Z,101377.21
2022-12-03T23:56:40.572Z,101372.20
2022-12-03T23:58:54.284Z,101372.63
